METAR Data
IDs: Format: Raw Decoded Include TAF

Data at: 1444 UTC 14 Apr 2021

METAR for:KOTH (North Bend/SW Oregon, OR, US)
Text:KOTH 141356Z 00000KT 10SM CLR 03/M01 A3011 RMK AO2 SLP196 T00281006
Temperature: 2.8°C ( 37°F)
Dewpoint: -0.6°C ( 31°F) [RH = 78%]
Pressure (altimeter):30.11 inches Hg (1019.7 mb) [Sea level pressure: 1019.6 mb]
Winds:calm
Visibility:10 or more sm (16+ km)
Ceiling:at least 12,000 feet AGL
Clouds:sky clear below 12,000 feet AGL
Text:KOTH 141256Z AUTO 00000KT 10SM CLR 04/01 A3010 RMK AO2 SLP191 T00440006
Temperature: 4.4°C ( 40°F)
Dewpoint: 0.6°C ( 33°F) [RH = 76%]
Pressure (altimeter):30.10 inches Hg (1019.4 mb) [Sea level pressure: 1019.1 mb]
Winds:calm
Visibility:10 or more sm (16+ km)
Ceiling:at least 12,000 feet AGL
Clouds:sky clear below 12,000 feet AGL
QC Flag:automated observation with no human augmentation

METAR for:KAST (Astoria Rgnl, OR, US)
Text:KAST 141355Z AUTO 14003KT 10SM CLR 02/M01 A3019 RMK AO2 SLP223 T00171011
Temperature: 1.7°C ( 35°F)
Dewpoint: -1.1°C ( 30°F) [RH = 82%]
Pressure (altimeter):30.19 inches Hg (1022.4 mb) [Sea level pressure: 1022.3 mb]
Winds:from the SE (140 degrees) at 3 MPH (3 knots; 1.5 m/s)
Visibility:10 or more sm (16+ km)
Ceiling:at least 12,000 feet AGL
Clouds:sky clear below 12,000 feet AGL
QC Flag:automated observation with no human augmentation
Text:KAST 141255Z AUTO 00000KT 10SM CLR 02/M02 A3019 RMK AO2 SLP223 T00171017
Temperature: 1.7°C ( 35°F)
Dewpoint: -1.7°C ( 29°F) [RH = 78%]
Pressure (altimeter):30.19 inches Hg (1022.4 mb) [Sea level pressure: 1022.3 mb]
Winds:calm
Visibility:10 or more sm (16+ km)
Ceiling:at least 12,000 feet AGL
Clouds:sky clear below 12,000 feet AGL
QC Flag:automated observation with no human augmentation

METAR for:KPDX (Portland Intl Arpt, OR, US)
Text:KPDX 141353Z 32009KT 10SM FEW250 08/M03 A3019 RMK AO2 SLP222 T00781028
Temperature: 7.8°C ( 46°F)
Dewpoint: -2.8°C ( 27°F) [RH = 47%]
Pressure (altimeter):30.19 inches Hg (1022.4 mb) [Sea level pressure: 1022.2 mb]
Winds:from the NW (320 degrees) at 10 MPH (9 knots; 4.6 m/s)
Visibility:10 or more sm (16+ km)
Ceiling:at least 12,000 feet AGL
Clouds: few clouds at 25000 feet AGL
Text:KPDX 141253Z 29010KT 10SM FEW250 08/M03 A3018 RMK AO2 SLP218 T00831033
Temperature: 8.3°C ( 47°F)
Dewpoint: -3.3°C ( 26°F) [RH = 44%]
Pressure (altimeter):30.18 inches Hg (1022.1 mb) [Sea level pressure: 1021.8 mb]
Winds:from the WNW (290 degrees) at 12 MPH (10 knots; 5.1 m/s)
Visibility:10 or more sm (16+ km)
Ceiling:at least 12,000 feet AGL
Clouds: few clouds at 25000 feet AGL

METAR for:KDLS (The Dalles Muni, OR, US)
Text:KDLS 141353Z AUTO 00000KT 10SM CLR 03/M04 A3021 RMK AO2 SLP231 T00331039
Temperature: 3.3°C ( 38°F)
Dewpoint: -3.9°C ( 25°F) [RH = 59%]
Pressure (altimeter):30.21 inches Hg (1023.1 mb) [Sea level pressure: 1023.1 mb]
Winds:calm
Visibility:10 or more sm (16+ km)
Ceiling:at least 12,000 feet AGL
Clouds:sky clear below 12,000 feet AGL
QC Flag:automated observation with no human augmentation
Text:KDLS 141253Z AUTO 33006KT 10SM CLR 03/M04 A3020 RMK AO2 SLP227 T00331039
Temperature: 3.3°C ( 38°F)
Dewpoint: -3.9°C ( 25°F) [RH = 59%]
Pressure (altimeter):30.20 inches Hg (1022.8 mb) [Sea level pressure: 1022.7 mb]
Winds:from the NNW (330 degrees) at 7 MPH (6 knots; 3.1 m/s)
Visibility:10 or more sm (16+ km)
Ceiling:at least 12,000 feet AGL
Clouds:sky clear below 12,000 feet AGL
QC Flag:automated observation with no human augmentation

METAR for:KPSC (Pasco/Tri Cities Arp, WA, US)
Text:KPSC 141353Z 01014KT 10SM CLR 06/M06 A3019 RMK AO2 SLP222 T00561061
Temperature: 5.6°C ( 42°F)
Dewpoint: -6.1°C ( 21°F) [RH = 43%]
Pressure (altimeter):30.19 inches Hg (1022.4 mb) [Sea level pressure: 1022.2 mb]
Winds:from the N (10 degrees) at 16 MPH (14 knots; 7.2 m/s)
Visibility:10 or more sm (16+ km)
Ceiling:at least 12,000 feet AGL
Clouds:sky clear below 12,000 feet AGL
Text:KPSC 141253Z 01011KT 10SM CLR 05/M06 A3017 RMK AO2 SLP218 T00501061
Temperature: 5.0°C ( 41°F)
Dewpoint: -6.1°C ( 21°F) [RH = 44%]
Pressure (altimeter):30.17 inches Hg (1021.8 mb) [Sea level pressure: 1021.8 mb]
Winds:from the N (10 degrees) at 13 MPH (11 knots; 5.7 m/s)
Visibility:10 or more sm (16+ km)
Ceiling:at least 12,000 feet AGL
Clouds:sky clear below 12,000 feet AGL

METAR for:KHRI (Hermiston Muni, OR, US)
Text:KHRI 141353Z AUTO 01007KT 10SM CLR 06/M06 A3015 RMK AO2 SLP211 T00611061
Temperature: 6.1°C ( 43°F)
Dewpoint: -6.1°C ( 21°F) [RH = 41%]
Pressure (altimeter):30.15 inches Hg (1021.1 mb) [Sea level pressure: 1021.1 mb]
Winds:from the N (10 degrees) at 8 MPH (7 knots; 3.6 m/s)
Visibility:10 or more sm (16+ km)
Ceiling:at least 12,000 feet AGL
Clouds:sky clear below 12,000 feet AGL
QC Flag:automated observation with no human augmentation

METAR for:KGEG (Spokane Intl, WA, US)
Text:KGEG 141353Z 06008KT 10SM FEW070 FEW200 04/M11 A3020 RMK AO2 SLP236 T00441106
Temperature: 4.4°C ( 40°F)
Dewpoint:-10.6°C ( 13°F) [RH = 33%]
Pressure (altimeter):30.20 inches Hg (1022.8 mb) [Sea level pressure: 1023.6 mb]
Winds:from the ENE (60 degrees) at 9 MPH (8 knots; 4.1 m/s)
Visibility:10 or more sm (16+ km)
Ceiling:at least 12,000 feet AGL
Clouds: few clouds at 7000 feet AGL, few clouds at 20000 feet AGL
Text:KGEG 141253Z 06010KT 10SM FEW030 FEW200 04/M11 A3021 RMK AO2 SLP236 T00391111
Temperature: 3.9°C ( 39°F)
Dewpoint:-11.1°C ( 12°F) [RH = 32%]
Pressure (altimeter):30.21 inches Hg (1023.1 mb) [Sea level pressure: 1023.6 mb]
Winds:from the ENE (60 degrees) at 12 MPH (10 knots; 5.1 m/s)
Visibility:10 or more sm (16+ km)
Ceiling:at least 12,000 feet AGL
Clouds: few clouds at 3000 feet AGL, few clouds at 20000 feet AGL